Track Ефремов Михаил Хабаровский край

Time Latitude Longitude Accuracy (66% radius in meters) Altitude (meters) Speed (km/hour) Bearing (degrees) Battery (%) GPS flag
04:18:46 43.170802 132.076020 4.5 65.5 0 0 72 1 delete
04:12:25 43.170793 132.076083 2.5 71.800003051758 0 0 72 1 delete
04:11:37 43.170794 132.076017 5 67.300003051758 0.099999994039536 38.29833984375 72 1 delete
04:11:28 43.170837 132.075952 6 67.800003051758 0.070000000298023 175.97900390625 72 1 delete
04:11:16 43.170782 132.075925 5 65.800003051758 0.34000000357628 317.20275878906 72 1 delete
04:09:43 43.170785 132.076015 4.5 64.699996948242 0.099999994039536 169.30480957031 72 1 delete
04:09:25 43.170855 132.075976 4 66 0.8299999833107 131.08337402344 72 1 delete
04:09:19 43.170906 132.075939 4.5 66.300003051758 0.6599999666214 135.20324707031 72 1 delete
04:09:13 43.170951 132.075874 4.5 68.699996948242 1.4699999094009 153.92395019531 72 1 delete
04:09:04 43.171027 132.075886 4.5 71.800003051758 0.58999997377396 150.1171875 72 1 delete
04:08:55 43.171089 132.075820 4 72.099998474121 0.79999995231628 148.35388183594 72 1 delete
04:08:43 43.171160 132.075795 4 73.400001525879 1.2200000286102 154.3798828125 72 1 delete
04:08:37 43.171202 132.075751 4 74.5 1.0699999332428 155.90698242188 72 1 delete
04:08:31 43.171251 132.075711 4 76 1.3199999332428 173.89709472656 72 1 delete
04:08:25 43.171324 132.075735 4 77.199996948242 0.94999998807907 180.86791992188 72 1 delete
04:06:13 43.171386 132.075734 5 76.900001525879 0.049999997019768 116.4990234375 72 1 delete
04:06:01 43.171401 132.075814 5 78.900001525879 0.089999996125698 23.785400390625 72 1 delete
04:05:43 43.171372 132.075742 5 74.599998474121 0 0 72 1 delete
04:05:16 43.171399 132.075693 6 80.599998474121 0.089999996125698 34.557495117188 72 1 delete
04:04:52 43.171387 132.075612 12.5 79.599998474121 0.52999997138977 323.38806152344 72 1 delete
04:04:49 43.171353 132.075667 13 79.099998474121 1.2099999189377 316.58203125 72 1 delete
04:04:13 43.171293 132.075786 5.5 76.900001525879 0.79999995231628 176.61071777344 72 1 delete
04:04:01 43.171390 132.075772 5.5 75.400001525879 0.77999997138977 167.00866699219 72 1 delete
04:03:13 43.171434 132.075759 3 74.800003051758 0 0 72 1 delete
04:02:31 43.171384 132.075797 7.5 72.300003051758 0 0 72 1 delete
03:59:43 43.171328 132.075818 4 73.900001525879 0.20999999344349 346.52526855469 72 1 delete
03:58:52 43.171309 132.075739 3 76.5 0.070000000298023 31.300048828125 75 1 delete
03:56:43 43.171360 132.075711 3.5 68.599998474121 0 0 75 1 delete
03:55:52 43.171374 132.075645 3 72 0.45999997854233 275.94909667969 75 1 delete
03:55:40 43.171357 132.075724 3 74.099998474121 0 0 75 1 delete
03:53:46 43.171361 132.075796 4 70.800003051758 0.38999998569489 139.74609375 75 1 delete
03:53:22 43.171314 132.075762 4 75.599998474121 0 0 75 1 delete
03:52:28 43.171266 132.075763 5 73.400001525879 0.19999998807907 358.03894042969 75 1 delete
03:47:13 43.171329 132.075734 3.5 79.300003051758 0 0 75 1 delete
03:46:23 43.171382 132.075761 3 77.699996948242 0.28999999165535 211.31103515625 75 1 delete
03:45:54 43.171407 132.075806 2.5 73.400001525879 0 0 75 1 delete
03:43:04 43.171416 132.075818 4 73.599998474121 0.029999999329448 90.845947265625 75 1 delete
03:42:52 43.171452 132.075857 4 74.300003051758 0 0 75 1 delete
03:42:49 43.171453 132.075787 5.5 74.400001525879 0.34999999403954 24.345703125 75 1 delete
03:42:10 43.171385 132.075786 5 72.5 0 0 75 1 delete
03:38:10 43.171385 132.075786 1 72.5 0 0 78 1 delete
03:34:40 43.171385 132.075786 1.5 72.5 0 0 78 1 delete
03:31:10 43.171383 132.075781 2 71.800003051758 0 0 78 1 delete
03:30:19 43.171406 132.075776 3.5 72.400001525879 0.11999999731779 173.66638183594 78 1 delete
03:30:13 43.171369 132.075832 3.5 73.199996948242 0.96999996900558 1.549072265625 78 1 delete
03:29:58 43.171310 132.075848 3 68.599998474121 0.45999997854233 5.4547119140625 78 1 delete
03:29:46 43.171246 132.075909 2.5 70.400001525879 0.58999997377396 312.09411621094 78 1 delete
03:29:40 43.171177 132.075950 2.5 70.300003051758 1.1799999475479 3.3123779296875 78 1 delete
03:29:37 43.171140 132.075906 3 69.699996948242 0.52999997138977 64.18212890625 78 1 delete
03:29:25 43.171053 132.075900 3.5 65.900001525879 1.0099999904633 36.798706054688 78 1 delete